createdAt,value
2023-05-19T00:00:53.647Z,101261.16
2023-05-19T00:01:56.656Z,101262.22
2023-05-19T00:03:00.716Z,101263.31
2023-05-19T00:04:06.733Z,101263.31
2023-05-19T00:05:10.664Z,101258.03
2023-05-19T00:06:14.101Z,101264.66
2023-05-19T00:07:20.742Z,101259.38
2023-05-19T00:08:24.854Z,101260.44
2023-05-19T00:09:27.497Z,101257.09
2023-05-19T00:10:32.093Z,101255.41
2023-05-19T00:11:36.593Z,101256.50
2023-05-19T00:12:39.683Z,101261.22
2023-05-19T00:13:45.420Z,101262.28
2023-05-19T00:14:48.056Z,101257.84
2023-05-19T00:15:51.409Z,101259.78
2023-05-19T00:16:56.518Z,101255.06
2023-05-19T00:17:59.105Z,101260.59
2023-05-19T00:19:03.281Z,101260.59
2023-05-19T00:20:07.593Z,101258.91
2023-05-19T00:21:10.082Z,101254.25
2023-05-19T00:22:12.377Z,101255.56
2023-05-19T00:23:14.731Z,101257.47
2023-05-19T00:24:17.159Z,101251.94
2023-05-19T00:25:19.538Z,101251.13
2023-05-19T00:26:23.412Z,101247.50
2023-05-19T00:27:38.056Z,101239.19
2023-05-19T00:28:42.960Z,101246.66
2023-05-19T00:29:45.591Z,101244.16
2023-05-19T00:30:47.950Z,101243.06
2023-05-19T00:31:51.386Z,101243.06
2023-05-19T00:32:54.185Z,101244.16
2023-05-19T00:33:56.514Z,101247.75
2023-05-19T00:34:59.833Z,101246.91
2023-05-19T00:36:03.831Z,101237.75
2023-05-19T00:37:06.363Z,101245.22
2023-05-19T00:38:08.969Z,101248.25
2023-05-19T00:39:11.336Z,101241.03
2023-05-19T00:40:14.819Z,101237.44
2023-05-19T00:41:17.147Z,101248.50
2023-05-19T00:42:21.180Z,101244.03
2023-05-19T00:43:23.506Z,101250.41
2023-05-19T00:44:25.861Z,101255.13
2023-05-19T00:45:28.231Z,101244.28
2023-05-19T00:46:30.953Z,101248.16
2023-05-19T00:47:33.552Z,101243.69
2023-05-19T00:48:35.887Z,101251.16
2023-05-19T00:49:38.376Z,101242.00
2023-05-19T00:50:41.734Z,101245.03
2023-05-19T00:51:44.117Z,101250.56
2023-05-19T00:52:46.716Z,101247.22
2023-05-19T00:53:52.319Z,101253.84
2023-05-19T00:54:55.989Z,101252.16
2023-05-19T00:56:02.238Z,101244.34
2023-05-19T00:57:05.016Z,101241.56
2023-05-19T00:58:11.067Z,101245.69
2023-05-19T00:59:13.417Z,101244.81
2023-05-19T01:00:16.658Z,101240.63
2023-05-19T01:01:21.945Z,101248.09
2023-05-19T01:02:25.539Z,101240.88
2023-05-19T01:03:31.283Z,101241.13
2023-05-19T01:04:36.282Z,101242.19
2023-05-19T01:05:42.537Z,101241.63
2023-05-19T01:06:45.652Z,101237.16
2023-05-19T01:07:52.183Z,101234.66
2023-05-19T01:08:54.772Z,101238.72
2023-05-19T01:09:57.767Z,101235.09
2023-05-19T01:11:01.021Z,101236.41
2023-05-19T01:12:03.959Z,101235.59
2023-05-19T01:13:07.798Z,101233.91
2023-05-19T01:14:10.195Z,101237.75
2023-05-19T01:15:14.214Z,101239.06
2023-05-19T01:16:23.955Z,101236.56
2023-05-19T01:18:00.394Z,101238.72
2023-05-19T01:19:26.665Z,101235.38
2023-05-19T01:20:53.890Z,101233.94
2023-05-19T01:22:23.294Z,101236.94
2023-05-19T01:23:40.226Z,101229.13
2023-05-19T01:25:07.237Z,101235.97
2023-05-19T01:26:27.238Z,101234.53
2023-05-19T01:27:59.849Z,101231.19
2023-05-19T01:29:11.595Z,101229.75
2023-05-19T01:30:23.966Z,101230.22
2023-05-19T01:31:27.267Z,101232.41
2023-05-19T01:32:31.722Z,101239.25
2023-05-19T01:33:36.092Z,101241.41
2023-05-19T01:34:42.754Z,101241.66
2023-05-19T01:35:46.107Z,101239.16
2023-05-19T01:36:50.058Z,101246.81
2023-05-19T01:37:56.904Z,101244.56
2023-05-19T01:39:00.301Z,101239.28
2023-05-19T01:40:02.770Z,101244.19
2023-05-19T01:41:07.090Z,101248.03
2023-05-19T01:42:12.123Z,101238.31
2023-05-19T01:43:19.763Z,101242.38
2023-05-19T01:44:23.028Z,101242.63
2023-05-19T01:45:27.897Z,101243.72
2023-05-19T01:46:30.737Z,101249.47
2023-05-19T01:47:38.545Z,101243.38
2023-05-19T01:48:43.294Z,101245.28
2023-05-19T01:49:45.636Z,101242.19
2023-05-19T01:50:48.104Z,101245.16
2023-05-19T01:51:51.073Z,101250.09
2023-05-19T01:52:54.160Z,101242.88
2023-05-19T01:53:56.605Z,101238.69
2023-05-19T01:54:58.950Z,101240.81
2023-05-19T01:56:03.140Z,101239.16
2023-05-19T01:57:24.889Z,101239.63
2023-05-19T01:58:27.573Z,101239.88
2023-05-19T01:59:57.301Z,101236.53
2023-05-19T02:01:16.761Z,101240.59
2023-05-19T02:02:43.437Z,101234.72
2023-05-19T02:03:59.089Z,101232.41
2023-05-19T02:05:13.812Z,101233.50
2023-05-19T02:06:21.530Z,101233.97
2023-05-19T02:07:37.718Z,101238.91
2023-05-19T02:08:51.183Z,101239.97
2023-05-19T02:10:06.191Z,101234.91
2023-05-19T02:11:14.260Z,101231.56
2023-05-19T02:12:26.232Z,101239.22
2023-05-19T02:13:34.510Z,101235.88
2023-05-19T02:14:46.719Z,101235.28
2023-05-19T02:15:51.265Z,101237.44
2023-05-19T02:16:58.035Z,101238.50
2023-05-19T02:18:04.819Z,101243.41
2023-05-19T02:19:07.397Z,101235.63
2023-05-19T02:20:12.035Z,101237.53
2023-05-19T02:21:14.446Z,101231.41
2023-05-19T02:22:17.173Z,101243.53
2023-05-19T02:23:19.876Z,101234.59
2023-05-19T02:24:23.136Z,101241.22
2023-05-19T02:25:26.032Z,101235.91
2023-05-19T02:26:28.498Z,101235.31
2023-05-19T02:27:31.178Z,101232.81
2023-05-19T02:28:33.616Z,101228.34
2023-05-19T02:29:36.518Z,101236.03
2023-05-19T02:30:38.829Z,101227.16
2023-05-19T02:31:41.192Z,101235.44
2023-05-19T02:32:47.043Z,101231.22
2023-05-19T02:33:49.550Z,101232.28
2023-05-19T02:34:53.504Z,101239.94
2023-05-19T02:35:56.462Z,101241.06
2023-05-19T02:36:59.181Z,101236.84
2023-05-19T02:38:01.770Z,101235.41
2023-05-19T02:39:05.062Z,101240.91
2023-05-19T02:40:08.232Z,101241.97
2023-05-19T02:41:11.002Z,101238.59
2023-05-19T02:42:14.960Z,101233.31
2023-05-19T02:43:17.557Z,101239.91
2023-05-19T02:44:20.745Z,101240.16
2023-05-19T02:45:23.197Z,101241.22
2023-05-19T02:46:25.666Z,101239.56
2023-05-19T02:47:28.006Z,101239.78
2023-05-19T02:48:30.384Z,101235.34
2023-05-19T02:49:36.243Z,101237.50
2023-05-19T02:50:38.684Z,101233.03
2023-05-19T02:51:41.033Z,101244.31
2023-05-19T02:52:43.738Z,101235.22
2023-05-19T02:53:46.520Z,101234.59
2023-05-19T02:54:48.896Z,101233.75
2023-05-19T02:55:51.659Z,101237.59
2023-05-19T02:56:54.106Z,101233.97
2023-05-19T02:57:56.469Z,101233.38
2023-05-19T02:58:58.880Z,101235.28
2023-05-19T03:00:01.201Z,101235.53
2023-05-19T03:01:03.668Z,101233.84
2023-05-19T03:02:06.051Z,101238.50
2023-05-19T03:03:10.610Z,101234.06
2023-05-19T03:04:14.246Z,101234.31
2023-05-19T03:05:16.597Z,101235.38
2023-05-19T03:06:19.031Z,101233.72
2023-05-19T03:07:25.523Z,101230.09
2023-05-19T03:08:28.640Z,101229.50
2023-05-19T03:09:31.571Z,101226.75
2023-05-19T03:10:34.084Z,101225.06
2023-05-19T03:11:36.585Z,101214.84
2023-05-19T03:12:39.225Z,101217.03
2023-05-19T03:13:41.845Z,101209.81
2023-05-19T03:14:44.542Z,101211.72
2023-05-19T03:15:47.544Z,101210.06
2023-05-19T03:16:49.944Z,101206.44
2023-05-19T03:17:52.598Z,101209.44
2023-05-19T03:18:55.844Z,101211.56
2023-05-19T03:19:58.283Z,101216.25
2023-05-19T03:21:01.161Z,101216.25
2023-05-19T03:22:03.876Z,101219.25
2023-05-19T03:23:07.098Z,101219.25
2023-05-19T03:24:09.758Z,101220.56
2023-05-19T03:25:12.039Z,101224.38
2023-05-19T03:26:14.498Z,101228.19
2023-05-19T03:27:17.282Z,101224.84
2023-05-19T03:28:19.813Z,101227.63
2023-05-19T03:29:22.201Z,101231.44
2023-05-19T03:30:26.340Z,101228.69
2023-05-19T03:31:39.197Z,101234.66
2023-05-19T03:32:41.712Z,101232.97
2023-05-19T03:33:44.422Z,101238.50
2023-05-19T03:34:47.351Z,101237.03
2023-05-19T03:35:50.322Z,101230.66
2023-05-19T03:36:52.737Z,101240.03
2023-05-19T03:37:55.989Z,101234.72
2023-05-19T03:38:59.499Z,101233.88
2023-05-19T03:40:02.315Z,101241.53
2023-05-19T03:41:05.233Z,101227.75
2023-05-19T03:42:07.670Z,101234.38
2023-05-19T03:43:10.983Z,101229.69
2023-05-19T03:44:20.354Z,101234.56
2023-05-19T03:45:22.769Z,101230.97
2023-05-19T03:46:27.167Z,101231.22
2023-05-19T03:47:58.494Z,101241.38
2023-05-19T03:49:19.697Z,101246.31
2023-05-19T03:50:40.723Z,101232.75
2023-05-19T03:51:50.920Z,101230.25
2023-05-19T03:53:01.190Z,101235.75
2023-05-19T03:54:06.272Z,101238.72
2023-05-19T03:55:09.053Z,101232.38
2023-05-19T03:56:14.113Z,101227.91
2023-05-19T03:57:16.558Z,101237.88
2023-05-19T03:58:19.170Z,101238.34
2023-05-19T03:59:21.521Z,101241.94
2023-05-19T04:00:24.150Z,101237.25
2023-05-19T04:01:26.601Z,101243.63
2023-05-19T04:02:29.334Z,101237.50
2023-05-19T04:03:31.735Z,101244.94
2023-05-19T04:04:35.884Z,101247.69
2023-05-19T04:05:38.301Z,101239.66
2023-05-19T04:06:40.819Z,101241.53
2023-05-19T04:07:45.726Z,101248.97
2023-05-19T04:08:48.048Z,101241.78
2023-05-19T04:09:51.134Z,101246.22
2023-05-19T04:10:53.479Z,101237.09
2023-05-19T04:11:57.017Z,101250.03
2023-05-19T04:13:00.036Z,101241.78
2023-05-19T04:14:02.515Z,101243.72
2023-05-19T04:15:06.245Z,101240.94
2023-05-19T04:16:08.778Z,101246.22
2023-05-19T04:17:11.422Z,101243.47
2023-05-19T04:18:13.924Z,101242.59
2023-05-19T04:19:16.565Z,101237.97
2023-05-19T04:20:20.368Z,101243.47
2023-05-19T04:21:22.786Z,101244.31
2023-05-19T04:22:25.192Z,101239.66
2023-05-19T04:23:28.276Z,101239.66
2023-05-19T04:24:30.877Z,101242.16
2023-05-19T04:25:38.652Z,101244.06
2023-05-19T04:26:46.098Z,101245.53
2023-05-19T04:27:49.360Z,101236.19
2023-05-19T04:28:52.363Z,101242.56
2023-05-19T04:29:54.964Z,101248.66
2023-05-19T04:30:58.913Z,101253.13
2023-05-19T04:32:01.351Z,101251.19
2023-05-19T04:33:05.014Z,101244.38
2023-05-19T04:34:10.638Z,101254.56
2023-05-19T04:35:13.942Z,101249.66
2023-05-19T04:36:18.630Z,101247.75
2023-05-19T04:37:21.296Z,101250.91
2023-05-19T04:38:23.694Z,101247.28
2023-05-19T04:39:27.137Z,101245.16
2023-05-19T04:40:31.662Z,101247.69
2023-05-19T04:41:34.949Z,101261.22
2023-05-19T04:42:43.081Z,101251.06
2023-05-19T04:43:46.079Z,101246.13
2023-05-19T04:44:52.124Z,101247.59
2023-05-19T04:45:55.566Z,101243.78
2023-05-19T04:46:58.575Z,101244.41
2023-05-19T04:48:02.239Z,101247.16
2023-05-19T04:49:04.595Z,101242.22
2023-05-19T04:50:07.459Z,101240.09
2023-05-19T04:51:10.480Z,101247.28
2023-05-19T04:52:12.852Z,101240.44
2023-05-19T04:53:18.053Z,101236.84
2023-05-19T04:54:20.691Z,101236.38
2023-05-19T04:55:23.276Z,101239.75
2023-05-19T04:56:27.638Z,101239.53
2023-05-19T04:57:30.338Z,101238.69
2023-05-19T04:58:33.715Z,101242.06
2023-05-19T04:59:36.295Z,101239.91
2023-05-19T05:00:42.537Z,101245.19
2023-05-19T05:01:45.956Z,101247.72
2023-05-19T05:02:50.283Z,101248.34
2023-05-19T05:03:55.654Z,101245.34
2023-05-19T05:04:58.440Z,101244.03
2023-05-19T05:06:00.761Z,101249.06
2023-05-19T05:07:03.453Z,101245.25
2023-05-19T05:08:06.345Z,101252.22
2023-05-19T05:09:17.296Z,101249.84
2023-05-19T05:10:20.020Z,101248.78
2023-05-19T05:11:22.602Z,101250.22
2023-05-19T05:12:25.390Z,101244.22
2023-05-19T05:13:28.092Z,101249.50
2023-05-19T05:14:30.684Z,101250.94
2023-05-19T05:15:33.770Z,101249.06
2023-05-19T05:16:38.617Z,101249.66
2023-05-19T05:17:42.300Z,101237.28
2023-05-19T05:18:45.213Z,101235.97
2023-05-19T05:19:48.805Z,101235.53
2023-05-19T05:20:51.554Z,101233.34
2023-05-19T05:21:56.306Z,101227.59
2023-05-19T05:22:58.962Z,101237.31
2023-05-19T05:24:02.324Z,101236.88
2023-05-19T05:25:08.086Z,101240.22
2023-05-19T05:26:19.084Z,101237.84
2023-05-19T05:27:23.779Z,101241.22
2023-05-19T05:28:26.347Z,101234.41
2023-05-19T05:29:29.558Z,101245.81
2023-05-19T05:30:34.646Z,101243.66
2023-05-19T05:31:37.889Z,101237.66
2023-05-19T05:32:40.947Z,101240.78
2023-05-19T05:33:50.784Z,101240.56
2023-05-19T05:34:59.348Z,101236.22
2023-05-19T05:36:02.179Z,101237.69
2023-05-19T05:37:04.661Z,101244.44
2023-05-19T05:38:07.233Z,101245.00
2023-05-19T05:39:10.342Z,101250.91
2023-05-19T05:40:14.792Z,101251.53
2023-05-19T05:41:17.235Z,101247.44
2023-05-19T05:42:20.718Z,101254.19
2023-05-19T05:43:23.663Z,101254.50
2023-05-19T05:44:31.869Z,101255.75
2023-05-19T05:45:34.454Z,101258.25
2023-05-19T05:46:37.543Z,101247.56
2023-05-19T05:47:41.685Z,101252.63
2023-05-19T05:48:45.013Z,101248.28
2023-05-19T05:49:48.910Z,101251.41
2023-05-19T05:50:52.707Z,101252.84
2023-05-19T05:52:05.837Z,101249.34
2023-05-19T05:53:19.728Z,101251.66
2023-05-19T05:54:25.129Z,101250.91
2023-05-19T05:55:28.799Z,101254.03
2023-05-19T05:56:34.005Z,101248.88
2023-05-19T05:57:36.939Z,101254.78
2023-05-19T05:58:40.897Z,101246.81
2023-05-19T05:59:45.816Z,101262.94
2023-05-19T06:00:49.543Z,101254.16
2023-05-19T06:01:53.235Z,101254.50
2023-05-19T06:02:57.615Z,101260.41
2023-05-19T06:04:01.466Z,101261.59
2023-05-19T06:05:07.008Z,101263.88
2023-05-19T06:06:10.479Z,101261.47
2023-05-19T06:07:12.869Z,101257.13
2023-05-19T06:08:15.599Z,101262.19
2023-05-19T06:09:18.501Z,101261.69
2023-05-19T06:10:21.477Z,101255.69
2023-05-19T06:11:25.356Z,101260.50
2023-05-19T06:12:28.966Z,101257.22
2023-05-19T06:13:31.357Z,101253.72
2023-05-19T06:14:33.876Z,101252.41
2023-05-19T06:15:53.277Z,101246.97
2023-05-19T06:17:00.708Z,101252.59
2023-05-19T06:18:04.230Z,101247.38
2023-05-19T06:19:06.687Z,101257.72
2023-05-19T06:20:11.064Z,101261.69
2023-05-19T06:21:14.870Z,101255.69
2023-05-19T06:22:18.007Z,101262.97
2023-05-19T06:23:20.364Z,101255.00
2023-05-19T06:24:22.967Z,101255.09
2023-05-19T06:25:26.054Z,101247.97
2023-05-19T06:26:28.750Z,101244.47
2023-05-19T06:27:32.634Z,101247.59
2023-05-19T06:28:37.298Z,101254.06
2023-05-19T06:29:40.836Z,101242.47
2023-05-19T06:30:44.514Z,101244.22
2023-05-19T06:32:09.916Z,101243.25
2023-05-19T06:33:12.624Z,101244.41
2023-05-19T06:34:17.875Z,101246.41
2023-05-19T06:35:22.374Z,101235.41
2023-05-19T06:36:26.571Z,101241.28
2023-05-19T06:37:31.830Z,101248.00
2023-05-19T06:38:34.160Z,101243.69
2023-05-19T06:39:39.137Z,101240.97
2023-05-19T06:40:41.617Z,101237.47
2023-05-19T06:41:44.734Z,101246.13
2023-05-19T06:42:58.884Z,101242.56
2023-05-19T06:44:15.026Z,101238.78
2023-05-19T06:45:22.635Z,101246.09
2023-05-19T06:46:28.195Z,101240.63
2023-05-19T06:47:31.097Z,101235.16
2023-05-19T06:48:34.305Z,101243.00
2023-05-19T06:49:37.632Z,101245.03
2023-05-19T06:50:39.998Z,101246.53
2023-05-19T06:51:42.486Z,101250.78
2023-05-19T06:52:44.892Z,101247.81
2023-05-19T06:53:49.160Z,101237.34
2023-05-19T06:54:51.480Z,101236.06
2023-05-19T06:55:58.697Z,101236.72
2023-05-19T06:57:02.757Z,101235.97
2023-05-19T06:58:05.357Z,101233.59
2023-05-19T06:59:07.664Z,101231.22
2023-05-19T07:00:15.273Z,101229.63
2023-05-19T07:01:21.952Z,101236.94
2023-05-19T07:02:29.541Z,101235.69
2023-05-19T07:03:32.799Z,101216.59
2023-05-19T07:04:36.584Z,101222.81
2023-05-19T07:05:38.984Z,101218.19
2023-05-19T07:06:41.267Z,101215.75
2023-05-19T07:07:44.210Z,101220.25
2023-05-19T07:08:49.352Z,101213.69
2023-05-19T07:09:52.877Z,101212.91
2023-05-19T07:10:56.740Z,101218.25
2023-05-19T07:11:59.221Z,101204.63
2023-05-19T07:13:02.025Z,101209.69
2023-05-19T07:14:08.056Z,101211.16
2023-05-19T07:15:11.886Z,101211.16
2023-05-19T07:16:14.379Z,101209.56
2023-05-19T07:17:17.727Z,101201.50
2023-05-19T07:18:21.603Z,101221.00
2023-05-19T07:19:24.395Z,101209.63
2023-05-19T07:20:28.388Z,101209.94
2023-05-19T07:21:30.963Z,101209.13
2023-05-19T07:22:35.479Z,101200.78
2023-05-19T07:23:38.144Z,101214.72
2023-05-19T07:24:41.066Z,101213.91
2023-05-19T07:25:43.446Z,101208.31
2023-05-19T07:26:45.792Z,101211.41
2023-05-19T07:27:48.196Z,101210.25
2023-05-19T07:28:52.109Z,101213.91
2023-05-19T07:29:54.670Z,101213.63
2023-05-19T07:30:57.103Z,101218.91
2023-05-19T07:31:59.681Z,101223.06
2023-05-19T07:33:02.130Z,101204.34
2023-05-19T07:34:04.642Z,101206.03
2023-05-19T07:35:08.938Z,101209.91
2023-05-19T07:36:11.693Z,101211.88
2023-05-19T07:37:16.433Z,101205.69
2023-05-19T07:38:18.936Z,101201.78
2023-05-19T07:39:22.597Z,101208.50
2023-05-19T07:40:25.111Z,101202.09
2023-05-19T07:41:27.665Z,101205.69
2023-05-19T07:42:30.053Z,101202.91
2023-05-19T07:43:32.453Z,101208.50
2023-05-19T07:44:35.134Z,101214.06
2023-05-19T07:45:38.332Z,101200.13
2023-05-19T07:46:40.790Z,101205.44
2023-05-19T07:47:43.259Z,101214.66
2023-05-19T07:48:46.041Z,101210.78
2023-05-19T07:49:50.375Z,101216.38
2023-05-19T07:50:54.355Z,101204.06
2023-05-19T07:51:57.363Z,101199.66
2023-05-19T07:52:59.722Z,101218.91
2023-05-19T07:54:04.063Z,101204.38
2023-05-19T07:55:06.555Z,101202.19
2023-05-19T07:56:08.979Z,101206.34
2023-05-19T07:57:11.561Z,101208.88
2023-05-19T07:58:14.577Z,101196.59
2023-05-19T07:59:16.935Z,101199.09
2023-05-19T08:00:19.459Z,101196.28
2023-05-19T08:01:22.321Z,101188.19
2023-05-19T08:02:25.150Z,101192.91
2023-05-19T08:03:28.693Z,101193.75
2023-05-19T08:04:31.961Z,101190.66
2023-05-19T08:05:36.491Z,101196.75
2023-05-19T08:06:39.730Z,101204.00
2023-05-19T08:07:42.141Z,101192.00
2023-05-19T08:08:44.599Z,101200.88
2023-05-19T08:09:47.087Z,101197.53
2023-05-19T08:10:49.759Z,101193.56
2023-05-19T08:11:52.226Z,101199.41
2023-05-19T08:12:54.727Z,101207.47
2023-05-19T08:13:57.734Z,101198.25
2023-05-19T08:15:01.347Z,101200.44
2023-05-19T08:16:06.471Z,101189.22
2023-05-19T08:17:08.913Z,101186.94
2023-05-19T08:18:11.275Z,101187.75
2023-05-19T08:19:13.853Z,101198.28
2023-05-19T08:20:16.267Z,101195.16
2023-05-19T08:21:19.744Z,101208.25
2023-05-19T08:22:22.132Z,101205.72
2023-05-19T08:23:24.518Z,101199.78
2023-05-19T08:24:29.783Z,101214.53
2023-05-19T08:25:33.070Z,101206.41
2023-05-19T08:26:37.638Z,101208.03
2023-05-19T08:27:41.601Z,101180.84
2023-05-19T08:28:44.483Z,101191.16
2023-05-19T08:29:46.816Z,101204.25
2023-05-19T08:30:52.653Z,101195.25
2023-05-19T08:31:55.175Z,101193.25
2023-05-19T08:32:57.699Z,101187.59
2023-05-19T08:34:00.196Z,101185.63
2023-05-19T08:35:02.533Z,101193.66
2023-05-19T08:36:05.273Z,101189.75
2023-05-19T08:37:07.992Z,101186.38
2023-05-19T08:38:10.370Z,101188.00
2023-05-19T08:39:14.242Z,101189.38
2023-05-19T08:40:18.543Z,101183.78
2023-05-19T08:41:23.453Z,101187.13
2023-05-19T08:42:25.780Z,101190.00
2023-05-19T08:43:28.252Z,101185.28
2023-05-19T08:44:31.806Z,101185.28
2023-05-19T08:45:38.901Z,101180.22
2023-05-19T08:46:44.943Z,101183.56
2023-05-19T08:47:51.219Z,101182.19
2023-05-19T08:48:58.837Z,101190.88
2023-05-19T08:50:11.959Z,101176.94
2023-05-19T08:51:30.483Z,101180.88
2023-05-19T08:52:46.878Z,101180.03
2023-05-19T08:53:57.860Z,101196.81
2023-05-19T08:55:13.238Z,101173.31
2023-05-19T08:56:20.254Z,101174.69
2023-05-19T08:57:25.342Z,101173.25
2023-05-19T08:58:28.880Z,101166.22
2023-05-19T08:59:32.774Z,101173.72
2023-05-19T09:00:35.797Z,101177.63
2023-05-19T09:01:40.713Z,101176.25
2023-05-19T09:02:55.082Z,101175.94
2023-05-19T09:04:03.862Z,101175.34
2023-05-19T09:05:07.482Z,101166.13
2023-05-19T09:06:14.702Z,101166.13
2023-05-19T09:07:17.404Z,101173.72
2023-05-19T09:08:19.868Z,101169.50
2023-05-19T09:09:22.461Z,101164.44
2023-05-19T09:10:25.613Z,101156.59
2023-05-19T09:11:28.900Z,101166.06
2023-05-19T09:12:31.728Z,101167.50
2023-05-19T09:13:34.427Z,101184.03
2023-05-19T09:14:37.588Z,101184.59
2023-05-19T09:15:41.425Z,101169.78
2023-05-19T09:16:46.070Z,101165.25
2023-05-19T09:17:52.129Z,101165.31
2023-05-19T09:18:58.435Z,101160.56
2023-05-19T09:20:07.120Z,101170.88
2023-05-19T09:21:12.090Z,101168.66
2023-05-19T09:22:16.292Z,101157.16
2023-05-19T09:23:18.641Z,101154.06
2023-05-19T09:24:25.772Z,101161.34
2023-05-19T09:25:28.269Z,101161.34
2023-05-19T09:26:38.553Z,101164.69
2023-05-19T09:27:41.286Z,101156.03
2023-05-19T09:28:43.650Z,101160.53
2023-05-19T09:29:45.950Z,101165.81
2023-05-19T09:30:48.623Z,101165.25
2023-05-19T09:31:56.593Z,101162.53
2023-05-19T09:32:59.203Z,101160.03
2023-05-19T09:34:01.630Z,101156.09
2023-05-19T09:35:04.609Z,101157.16
2023-05-19T09:36:08.712Z,101164.19
2023-05-19T09:37:13.384Z,101144.91
2023-05-19T09:38:19.419Z,101160.28
2023-05-19T09:39:23.707Z,101149.69
2023-05-19T09:40:28.307Z,101160.34
2023-05-19T09:41:31.174Z,101151.13
2023-05-19T09:42:37.529Z,101150.00
2023-05-19T09:43:39.904Z,101161.19
2023-05-19T09:44:42.592Z,101152.78
2023-05-19T09:45:45.325Z,101150.81
2023-05-19T09:46:50.036Z,101149.38
2023-05-19T09:47:52.421Z,101147.19
2023-05-19T09:48:58.883Z,101141.59
2023-05-19T09:50:02.052Z,101153.31
2023-05-19T09:51:09.247Z,101139.63
2023-05-19T09:52:16.433Z,101139.31
2023-05-19T09:53:18.968Z,101137.34
2023-05-19T09:54:23.906Z,101144.03
2023-05-19T09:55:28.960Z,101142.88
2023-05-19T09:56:38.266Z,101142.88
2023-05-19T09:57:41.670Z,101131.41
2023-05-19T09:58:44.099Z,101124.66
2023-05-19T09:59:46.763Z,101134.41
2023-05-19T10:00:50.673Z,101129.13
2023-05-19T10:01:58.014Z,101134.72
2023-05-19T10:03:02.696Z,101147.88
2023-05-19T10:04:06.096Z,101135.31
2023-05-19T10:05:17.822Z,101132.22
2023-05-19T10:06:22.181Z,101118.84
2023-05-19T10:07:24.842Z,101125.56
2023-05-19T10:08:30.126Z,101128.06
2023-05-19T10:09:33.730Z,101120.53
2023-05-19T10:10:37.353Z,101120.25
2023-05-19T10:11:40.249Z,101113.59
2023-05-19T10:12:43.400Z,101124.31
2023-05-19T10:13:46.381Z,101126.56
2023-05-19T10:14:49.238Z,101112.56
2023-05-19T10:16:59.691Z,101121.31
2023-05-19T10:18:03.832Z,101129.19
2023-05-19T10:19:09.279Z,101142.03
2023-05-19T10:20:14.288Z,101125.84
2023-05-19T10:21:17.324Z,101130.06
2023-05-19T10:22:19.602Z,101131.81
2023-05-19T10:23:22.716Z,101127.34
2023-05-19T10:24:25.271Z,101134.66
2023-05-19T10:25:27.958Z,101131.59
2023-05-19T10:26:31.435Z,101118.75
2023-05-19T10:27:49.083Z,101122.97
2023-05-19T10:28:51.832Z,101122.69
2023-05-19T10:29:57.765Z,101126.31
2023-05-19T10:31:03.293Z,101119.66
2023-05-19T10:32:11.881Z,101117.16
2023-05-19T10:33:17.690Z,101120.22
2023-05-19T10:34:22.448Z,101118.88
2023-05-19T10:35:34.541Z,101122.50
2023-05-19T10:36:45.192Z,101113.81
2023-05-19T10:38:06.654Z,101110.50
2023-05-19T10:39:18.415Z,101105.72
2023-05-19T10:40:39.137Z,101106.53
2023-05-19T10:42:19.686Z,101105.72
2023-05-19T10:44:02.121Z,101111.00
2023-05-19T10:45:21.280Z,101107.91
2023-05-19T10:46:27.522Z,101112.69
2023-05-19T10:47:30.731Z,101110.50
2023-05-19T10:48:36.541Z,101107.13
2023-05-19T10:49:40.003Z,101107.38
2023-05-19T10:50:45.434Z,101102.91
2023-05-19T10:51:47.701Z,101119.69
2023-05-19T10:52:56.998Z,101109.63
2023-05-19T10:54:03.976Z,101116.28
2023-05-19T10:55:18.007Z,101106.22
2023-05-19T10:56:31.300Z,101116.28
2023-05-19T10:57:34.177Z,101116.00
2023-05-19T10:58:49.791Z,101107.34
2023-05-19T10:59:52.187Z,101103.69
2023-05-19T11:01:01.252Z,101107.84
2023-05-19T11:02:05.116Z,101120.47
2023-05-19T11:03:24.472Z,101129.41
2023-05-19T11:04:51.946Z,101107.84
2023-05-19T11:06:17.777Z,101096.16
2023-05-19T11:07:22.594Z,101107.34
2023-05-19T11:08:33.755Z,101110.97
2023-05-19T11:09:41.213Z,101108.72
2023-05-19T11:10:46.665Z,101112.88
2023-05-19T11:11:49.116Z,101115.94
2023-05-19T11:12:52.353Z,101111.50
2023-05-19T11:13:55.907Z,101115.13
2023-05-19T11:14:59.529Z,101115.44
2023-05-19T11:16:08.516Z,101114.63
2023-05-19T11:17:15.474Z,101104.81
2023-05-19T11:18:21.622Z,101104.53
2023-05-19T11:19:32.309Z,101113.75
2023-05-19T11:20:39.465Z,101112.06
2023-05-19T11:22:00.951Z,101113.19
2023-05-19T11:23:08.377Z,101107.34
2023-05-19T11:24:11.173Z,101101.19
2023-05-19T11:25:13.612Z,101112.06
2023-05-19T11:26:15.969Z,101108.47
2023-05-19T11:27:26.425Z,101110.41
2023-05-19T11:28:31.117Z,101102.31
2023-05-19T11:29:34.798Z,101097.84
2023-05-19T11:30:37.635Z,101091.19
2023-05-19T11:31:40.015Z,101101.53
2023-05-19T11:32:44.781Z,101099.88
2023-05-19T11:33:48.594Z,101116.16
2023-05-19T11:34:54.644Z,101108.06
2023-05-19T11:36:00.457Z,101097.19
2023-05-19T11:37:03.084Z,101103.97
2023-05-19T11:38:07.441Z,101108.50
2023-05-19T11:39:10.828Z,101091.22
2023-05-19T11:40:14.032Z,101097.94
2023-05-19T11:41:18.202Z,101096.56
2023-05-19T11:42:21.177Z,101082.31
2023-05-19T11:43:24.905Z,101093.50
2023-05-19T11:44:27.197Z,101108.91
2023-05-19T11:45:32.213Z,101103.31
2023-05-19T11:46:34.785Z,101097.50
2023-05-19T11:47:50.769Z,101094.69
2023-05-19T11:48:59.626Z,101106.69
2023-05-19T11:50:02.233Z,101095.53
2023-05-19T11:51:06.766Z,101110.03
2023-05-19T11:52:09.188Z,101108.06
2023-05-19T11:53:15.332Z,101097.19
2023-05-19T11:54:19.520Z,101110.88
2023-05-19T11:55:22.579Z,101091.00
2023-05-19T11:56:24.906Z,101090.19
2023-05-19T11:57:28.653Z,101101.88
2023-05-19T11:58:32.361Z,101091.78
2023-05-19T11:59:36.861Z,101104.63
2023-05-19T12:00:41.962Z,101104.13
2023-05-19T12:01:44.321Z,101103.50
2023-05-19T12:02:46.951Z,101103.22
2023-05-19T12:03:49.980Z,101097.63
2023-05-19T12:04:52.954Z,101095.38
2023-05-19T12:05:57.229Z,101094.50
2023-05-19T12:06:59.780Z,101095.03
2023-05-19T12:08:02.947Z,101098.66
2023-05-19T12:09:05.727Z,101100.63
2023-05-19T12:10:09.228Z,101095.59
2023-05-19T12:11:11.689Z,101105.34
2023-05-19T12:12:19.309Z,101104.50
2023-05-19T12:13:22.945Z,101108.66
2023-05-19T12:14:27.223Z,101110.66
2023-05-19T12:15:29.588Z,101095.59
2023-05-19T12:16:36.622Z,101101.44
2023-05-19T12:17:39.269Z,101098.91
2023-05-19T12:18:42.549Z,101107.03
2023-05-19T12:19:47.269Z,101098.66
2023-05-19T12:20:50.177Z,101108.41
2023-05-19T12:21:53.386Z,101097.00
2023-05-19T12:22:56.616Z,101107.03
2023-05-19T12:24:00.203Z,101107.03